Time;durP1;ratioP1;P1;durP2;ratioP2;P2;SDS_P1;SDS_P2;PMS_P1;PMS_P2;Temp;Humidity;BMP_temperature;BMP_pressure;BME280_temperature;BME280_humidity;BME280_pressure;Samples;Min_cycle;Max_cycle;Signal;HPM_P1;HPM_P2
2021/08/24 00:02:02;;;;;;;2.03;1.40;;;;;;;;;;5031729;28;20057;-74
2021/08/24 00:04:28;;;;;;;1.45;1.10;;;;;;;;;;5032739;28;20026;-74
2021/08/24 00:06:54;;;;;;;2.30;1.20;;;;;;;;;;5032045;28;20034;-74
2021/08/24 00:09:20;;;;;;;3.35;1.27;;;;;;;;;;5031921;28;20021;-74
2021/08/24 00:11:46;;;;;;;2.00;1.60;;;;;;;;;;5031047;28;20059;-74
2021/08/24 00:14:12;;;;;;;1.85;1.10;;;;;;;;;;5031488;28;20025;-74
2021/08/24 00:16:41;;;;;;;3.08;1.42;;;;;;;;;;5030588;28;20507;-74
2021/08/24 00:19:11;;;;;;;2.67;1.42;;;;;;;;;;5031643;28;20036;-74
2021/08/24 00:21:41;;;;;;;3.00;1.55;;;;;;;;;;5031021;28;20036;-74
2021/08/24 00:24:08;;;;;;;3.97;1.55;;;;;;;;;;5032102;28;20036;-74
2021/08/24 00:26:34;;;;;;;2.05;1.60;;;;;;;;;;5031840;28;20022;-74
2021/08/24 00:29:00;;;;;;;4.05;1.85;;;;;;;;;;5031843;28;20503;-75
2021/08/24 00:31:26;;;;;;;2.55;1.60;;;;;;;;;;5031582;28;20053;-74
2021/08/24 00:33:53;;;;;;;1.75;1.33;;;;;;;;;;5031741;28;20021;-74
2021/08/24 00:36:21;;;;;;;2.50;1.52;;;;;;;;;;5031882;28;20033;-74
2021/08/24 00:38:48;;;;;;;2.70;1.70;;;;;;;;;;5031666;28;20075;-75
2021/08/24 00:41:15;;;;;;;2.00;1.40;;;;;;;;;;5031014;28;20056;-74
2021/08/24 00:43:42;;;;;;;1.65;1.20;;;;;;;;;;5031693;28;20504;-74
2021/08/24 00:46:14;;;;;;;2.20;1.38;;;;;;;;;;5031781;28;20026;-74
2021/08/24 00:48:40;;;;;;;1.63;1.20;;;;;;;;;;5031776;28;20076;-74
2021/08/24 00:51:06;;;;;;;3.70;1.38;;;;;;;;;;5029586;28;20038;-74
2021/08/24 00:53:33;;;;;;;2.08;1.50;;;;;;;;;;5031143;28;20029;-74
2021/08/24 00:56:00;;;;;;;2.00;1.42;;;;;;;;;;5031656;28;20034;-74
2021/08/24 00:58:26;;;;;;;2.92;1.30;;;;;;;;;;5031315;28;20037;-74
2021/08/24 01:00:53;;;;;;;1.55;1.30;;;;;;;;;;5031325;28;20481;-75
2021/08/24 01:03:21;;;;;;;1.80;1.27;;;;;;;;;;5030215;28;20026;-74
2021/08/24 01:05:48;;;;;;;1.90;1.45;;;;;;;;;;5029956;28;20029;-74
2021/08/24 01:08:14;;;;;;;2.00;1.40;;;;;;;;;;5031243;28;20062;-74
2021/08/24 01:10:45;;;;;;;2.10;1.50;;;;;;;;;;5031363;28;20057;-74
2021/08/24 01:13:25;;;;;;;1.73;1.33;;;;;;;;;;5031740;28;20380;-74
2021/08/24 01:15:56;;;;;;;3.83;1.45;;;;;;;;;;5031760;28;20064;-74
2021/08/24 01:18:27;;;;;;;2.60;1.20;;;;;;;;;;5030093;28;20492;-74
2021/08/24 01:20:56;;;;;;;2.05;1.38;;;;;;;;;;5031184;28;20029;-74
2021/08/24 01:23:41;;;;;;;2.20;1.23;;;;;;;;;;5031145;28;20105;-74
2021/08/24 01:26:13;;;;;;;1.35;1.08;;;;;;;;;;5030618;28;20026;-75
2021/08/24 01:28:51;;;;;;;1.83;1.20;;;;;;;;;;5034648;28;20030;-75
2021/08/24 01:31:31;;;;;;;1.77;1.20;;;;;;;;;;5034323;28;20079;-75
2021/08/24 01:34:03;;;;;;;2.08;1.48;;;;;;;;;;5033479;28;20095;-75
2021/08/24 01:36:59;;;;;;;2.80;1.30;;;;;;;;;;5034579;28;20029;-76
2021/08/24 01:39:27;;;;;;;2.63;1.13;;;;;;;;;;5029816;28;20064;-76
2021/08/24 01:42:12;;;;;;;1.85;1.17;;;;;;;;;;5033698;28;20324;-76
2021/08/24 01:44:45;;;;;;;1.40;1.25;;;;;;;;;;5034328;28;20025;-75
2021/08/24 01:47:16;;;;;;;1.55;1.10;;;;;;;;;;5034108;28;20036;-75
2021/08/24 01:49:44;;;;;;;2.63;1.45;;;;;;;;;;5031503;28;20124;-75
2021/08/24 01:52:12;;;;;;;1.88;1.33;;;;;;;;;;5032405;28;20026;-75
2021/08/24 01:54:43;;;;;;;2.20;1.30;;;;;;;;;;5032473;28;20029;-75
2021/08/24 01:57:13;;;;;;;2.03;1.30;;;;;;;;;;5032579;28;20033;-75
2021/08/24 01:59:41;;;;;;;1.52;1.15;;;;;;;;;;5032681;28;20040;-75
2021/08/24 02:02:19;;;;;;;1.80;1.20;;;;;;;;;;5032429;28;20022;-75
2021/08/24 02:04:51;;;;;;;4.30;3.28;;;;;;;;;;5027693;28;20407;-76
2021/08/24 02:07:19;;;;;;;2.85;2.00;;;;;;;;;;5033085;28;20014;-75
2021/08/24 02:09:47;;;;;;;2.80;2.35;;;;;;;;;;5027565;28;20080;-75
2021/08/24 02:12:15;;;;;;;3.30;2.35;;;;;;;;;;5032157;28;20029;-75
2021/08/24 02:14:42;;;;;;;3.40;1.95;;;;;;;;;;5032422;28;20024;-75
2021/08/24 02:17:09;;;;;;;2.20;1.77;;;;;;;;;;5032885;28;20067;-76
2021/08/24 02:19:39;;;;;;;2.53;1.65;;;;;;;;;;5033059;28;20439;-76
2021/08/24 02:22:08;;;;;;;4.95;2.17;;;;;;;;;;5033174;28;20025;-76
2021/08/24 02:24:43;;;;;;;1.90;1.60;;;;;;;;;;5032381;28;20029;-76
2021/08/24 02:27:10;;;;;;;2.38;1.50;;;;;;;;;;5032619;28;20401;-76
2021/08/24 02:29:37;;;;;;;2.78;1.50;;;;;;;;;;5033156;28;20017;-76
2021/08/24 02:32:07;;;;;;;2.13;1.50;;;;;;;;;;5031870;28;20511;-77
2021/08/24 02:34:33;;;;;;;3.42;1.60;;;;;;;;;;5032666;28;20026;-76
2021/08/24 02:37:14;;;;;;;3.63;1.60;;;;;;;;;;5033537;28;20041;-76
2021/08/24 02:39:52;;;;;;;3.67;1.70;;;;;;;;;;5033440;28;20029;-76
2021/08/24 02:42:23;;;;;;;3.40;1.27;;;;;;;;;;5033257;28;20028;-76
2021/08/24 02:45:02;;;;;;;4.53;1.85;;;;;;;;;;5033167;28;20034;-76
2021/08/24 02:47:28;;;;;;;2.00;1.73;;;;;;;;;;5033396;28;20396;-76
2021/08/24 02:49:55;;;;;;;1.92;1.48;;;;;;;;;;5033214;28;20132;-76
2021/08/24 02:52:21;;;;;;;1.60;1.42;;;;;;;;;;5032621;28;20025;-76
2021/08/24 02:54:47;;;;;;;4.18;1.50;;;;;;;;;;5033203;28;20033;-76
2021/08/24 02:57:14;;;;;;;2.50;1.67;;;;;;;;;;5033361;28;20139;-76
2021/08/24 02:59:40;;;;;;;2.20;1.40;;;;;;;;;;5031661;28;20124;-76
2021/08/24 03:02:08;;;;;;;3.40;1.40;;;;;;;;;;5031904;28;20029;-76
2021/08/24 03:04:34;;;;;;;3.47;1.60;;;;;;;;;;5033331;28;20032;-76
2021/08/24 03:07:06;;;;;;;2.28;1.60;;;;;;;;;;5032976;28;20041;-77
2021/08/24 03:09:33;;;;;;;2.93;1.47;;;;;;;;;;5031553;28;20492;-76
2021/08/24 03:12:07;;;;;;;3.00;1.60;;;;;;;;;;5032432;28;20030;-76
2021/08/24 03:14:40;;;;;;;4.90;1.30;;;;;;;;;;5031385;28;20056;-76
2021/08/24 03:17:09;;;;;;;2.03;1.60;;;;;;;;;;5032876;28;20515;-76
2021/08/24 03:19:36;;;;;;;1.77;1.48;;;;;;;;;;5032697;28;20033;-76
2021/08/24 03:22:03;;;;;;;2.38;1.38;;;;;;;;;;5030954;28;20488;-76
2021/08/24 03:24:30;;;;;;;2.10;1.73;;;;;;;;;;5032831;28;20550;-77
2021/08/24 03:26:56;;;;;;;1.92;1.55;;;;;;;;;;5032981;28;20096;-76
2021/08/24 03:29:23;;;;;;;2.63;1.52;;;;;;;;;;5031369;28;20558;-76
2021/08/24 03:31:56;;;;;;;3.13;1.30;;;;;;;;;;5031882;28;20108;-76
2021/08/24 03:34:23;;;;;;;3.50;1.50;;;;;;;;;;5032320;28;20052;-76
2021/08/24 03:36:49;;;;;;;2.10;1.42;;;;;;;;;;5032585;28;20059;-76
2021/08/24 03:39:15;;;;;;;1.70;1.45;;;;;;;;;;5032560;28;20059;-76
2021/08/24 03:41:41;;;;;;;2.17;1.70;;;;;;;;;;5031948;28;20021;-76
2021/08/24 03:44:07;;;;;;;1.40;1.20;;;;;;;;;;5032364;28;20026;-76
2021/08/24 03:46:34;;;;;;;2.97;1.70;;;;;;;;;;5032395;28;20022;-76
2021/08/24 03:49:00;;;;;;;1.73;1.33;;;;;;;;;;5031585;28;20111;-76
2021/08/24 03:51:26;;;;;;;2.00;1.50;;;;;;;;;;5031587;28;20033;-76
2021/08/24 03:53:52;;;;;;;2.15;1.40;;;;;;;;;;5032077;28;20036;-76
2021/08/24 03:56:18;;;;;;;1.50;1.23;;;;;;;;;;5032532;28;20530;-76
2021/08/24 03:58:44;;;;;;;1.77;1.48;;;;;;;;;;5032022;28;20036;-76
2021/08/24 04:01:15;;;;;;;2.20;1.50;;;;;;;;;;5031722;28;20024;-76
2021/08/24 04:03:41;;;;;;;1.67;1.40;;;;;;;;;;5031866;28;20061;-76
2021/08/24 04:06:07;;;;;;;2.17;1.30;;;;;;;;;;5031676;28;20028;-76
2021/08/24 04:08:34;;;;;;;1.63;1.23;;;;;;;;;;5032285;28;20024;-77
2021/08/24 04:11:02;;;;;;;3.00;1.10;;;;;;;;;;5031685;28;20055;-76
2021/08/24 04:13:28;;;;;;;1.92;1.50;;;;;;;;;;5030628;28;20412;-76
2021/08/24 04:15:54;;;;;;;2.00;1.58;;;;;;;;;;5031756;28;20022;-76
2021/08/24 04:18:20;;;;;;;1.60;1.20;;;;;;;;;;5032223;28;20021;-76
2021/08/24 04:20:47;;;;;;;1.77;1.30;;;;;;;;;;5031840;28;20017;-76
2021/08/24 04:23:15;;;;;;;2.38;1.33;;;;;;;;;;5031884;28;20400;-76
2021/08/24 04:25:41;;;;;;;1.77;1.40;;;;;;;;;;5030758;28;20112;-76
2021/08/24 04:28:07;;;;;;;1.60;1.10;;;;;;;;;;5030669;28;20404;-76
2021/08/24 04:30:33;;;;;;;3.50;1.45;;;;;;;;;;5032030;28;20041;-76
2021/08/24 04:32:59;;;;;;;2.85;1.20;;;;;;;;;;5031795;28;20041;-76
2021/08/24 04:35:25;;;;;;;2.60;1.65;;;;;;;;;;5032000;28;20064;-76
2021/08/24 04:37:51;;;;;;;1.83;1.35;;;;;;;;;;5031400;28;20029;-76
2021/08/24 04:40:17;;;;;;;2.95;1.48;;;;;;;;;;5031610;28;20032;-76
2021/08/24 04:42:47;;;;;;;1.70;1.30;;;;;;;;;;5031622;28;20109;-76
2021/08/24 04:45:13;;;;;;;1.27;1.05;;;;;;;;;;5030328;28;20018;-76
2021/08/24 04:47:39;;;;;;;2.10;1.15;;;;;;;;;;5031576;28;20026;-76
2021/08/24 04:50:06;;;;;;;2.63;1.42;;;;;;;;;;5031232;28;20077;-76
2021/08/24 04:52:32;;;;;;;1.75;1.35;;;;;;;;;;5030022;28;20028;-76
2021/08/24 04:54:58;;;;;;;1.50;1.35;;;;;;;;;;5031492;28;20036;-76
2021/08/24 04:57:24;;;;;;;1.25;1.15;;;;;;;;;;5031760;28;20033;-76
2021/08/24 04:59:50;;;;;;;2.50;1.33;;;;;;;;;;5031432;28;20091;-76
2021/08/24 05:02:18;;;;;;;1.77;1.23;;;;;;;;;;5034264;28;20053;-77
2021/08/24 05:04:44;;;;;;;1.73;1.35;;;;;;;;;;5035344;28;20021;-76
2021/08/24 05:07:10;;;;;;;1.77;1.42;;;;;;;;;;5035202;28;20056;-76
2021/08/24 05:09:37;;;;;;;1.35;1.17;;;;;;;;;;5035314;28;20026;-76
2021/08/24 05:12:04;;;;;;;2.00;1.23;;;;;;;;;;5034193;28;20120;-76
2021/08/24 05:14:30;;;;;;;1.58;1.05;;;;;;;;;;5034921;28;20551;-76
2021/08/24 05:16:57;;;;;;;1.42;1.23;;;;;;;;;;5034959;28;20030;-76
2021/08/24 05:19:24;;;;;;;3.80;1.23;;;;;;;;;;5035187;28;20026;-76
2021/08/24 05:21:50;;;;;;;1.75;1.17;;;;;;;;;;5033280;28;20095;-76
2021/08/24 05:24:16;;;;;;;1.17;1.05;;;;;;;;;;5035302;28;20021;-76
2021/08/24 05:26:42;;;;;;;1.20;1.10;;;;;;;;;;5034976;28;20030;-76
2021/08/24 05:29:08;;;;;;;1.20;0.95;;;;;;;;;;5034799;28;20029;-76
2021/08/24 05:31:34;;;;;;;1.20;1.10;;;;;;;;;;5034346;28;20036;-76
2021/08/24 05:34:01;;;;;;;1.90;1.35;;;;;;;;;;5034902;28;20029;-76
2021/08/24 05:36:27;;;;;;;1.23;1.00;;;;;;;;;;5034983;28;20039;-76
2021/08/24 05:38:53;;;;;;;2.08;1.13;;;;;;;;;;5034550;28;20025;-76
2021/08/24 05:41:19;;;;;;;1.80;1.10;;;;;;;;;;5034258;28;20091;-76
2021/08/24 05:43:45;;;;;;;1.80;1.30;;;;;;;;;;5033971;28;20044;-76
2021/08/24 05:46:15;;;;;;;2.38;1.00;;;;;;;;;;5034591;28;20026;-76
2021/08/24 05:48:42;;;;;;;2.03;1.20;;;;;;;;;;5032999;28;20037;-76
2021/08/24 05:51:12;;;;;;;1.88;1.30;;;;;;;;;;5034095;28;20108;-76
2021/08/24 05:53:38;;;;;;;1.42;1.20;;;;;;;;;;5034521;28;20029;-76
2021/08/24 05:56:11;;;;;;;1.70;1.10;;;;;;;;;;5033219;28;20025;-76
2021/08/24 05:58:37;;;;;;;;;;;;;;;;;;5033315;28;20025;-76
2021/08/24 06:01:04;;;;;;;1.50;1.10;;;;;;;;;;5034484;28;19955;-76
2021/08/24 06:03:30;;;;;;;1.73;1.10;;;;;;;;;;5033154;28;20037;-76
2021/08/24 06:05:58;;;;;;;2.20;1.35;;;;;;;;;;5032958;28;20026;-76
2021/08/24 06:08:24;;;;;;;1.35;1.10;;;;;;;;;;5034185;28;20123;-76
2021/08/24 06:10:53;;;;;;;1.50;1.15;;;;;;;;;;5032476;28;20029;-76
2021/08/24 06:13:19;;;;;;;1.55;1.10;;;;;;;;;;5033275;28;20039;-76
2021/08/24 06:15:45;;;;;;;1.60;1.25;;;;;;;;;;5033188;28;20051;-76
2021/08/24 06:18:11;;;;;;;1.15;1.00;;;;;;;;;;5034185;28;20036;-76
2021/08/24 06:20:37;;;;;;;1.48;1.10;;;;;;;;;;5033661;28;20028;-76
2021/08/24 06:23:03;;;;;;;1.40;1.10;;;;;;;;;;5034043;28;20026;-76
2021/08/24 06:25:29;;;;;;;1.30;1.20;;;;;;;;;;5033962;28;20045;-76
2021/08/24 06:27:56;;;;;;;2.97;1.10;;;;;;;;;;5033603;28;20052;-76
2021/08/24 06:30:22;;;;;;;1.38;1.10;;;;;;;;;;5033923;28;20026;-76
2021/08/24 06:32:51;;;;;;;2.95;1.15;;;;;;;;;;5033807;28;20033;-76
2021/08/24 06:35:19;;;;;;;2.15;1.30;;;;;;;;;;5033481;28;20036;-76
2021/08/24 06:37:45;;;;;;;3.28;1.27;;;;;;;;;;5033485;28;20034;-76
2021/08/24 06:40:14;;;;;;;1.90;1.50;;;;;;;;;;5033138;28;20030;-76
2021/08/24 06:42:47;;;;;;;1.35;1.23;;;;;;;;;;5033376;28;20032;-76
2021/08/24 06:45:21;;;;;;;1.23;1.10;;;;;;;;;;5033524;28;20025;-76
2021/08/24 06:47:48;;;;;;;1.23;1.13;;;;;;;;;;5031566;28;20481;-76
2021/08/24 06:50:14;;;;;;;1.92;1.20;;;;;;;;;;5031598;28;20527;-76
2021/08/24 06:52:40;;;;;;;2.70;1.10;;;;;;;;;;5032927;28;20410;-76
2021/08/24 06:55:08;;;;;;;2.13;1.20;;;;;;;;;;5033657;28;20483;-76
2021/08/24 06:57:34;;;;;;;1.48;1.38;;;;;;;;;;5032512;28;20481;-76
2021/08/24 07:00:01;;;;;;;7.15;2.20;;;;;;;;;;5033048;28;20030;-76
2021/08/24 07:02:27;;;;;;;3.03;1.95;;;;;;;;;;5032623;28;20488;-76
2021/08/24 07:04:53;;;;;;;2.95;1.95;;;;;;;;;;5031636;28;20017;-76
2021/08/24 07:07:20;;;;;;;2.80;2.08;;;;;;;;;;5031582;28;20029;-76
2021/08/24 07:09:46;;;;;;;5.22;2.00;;;;;;;;;;5031236;28;20025;-77
2021/08/24 07:12:12;;;;;;;6.55;2.53;;;;;;;;;;5030458;28;20103;-77
2021/08/24 07:14:39;;;;;;;2.38;1.60;;;;;;;;;;5030350;28;20026;-77
2021/08/24 07:17:05;;;;;;;5.38;1.63;;;;;;;;;;5032249;28;20025;-77
2021/08/24 07:19:31;;;;;;;3.63;1.55;;;;;;;;;;5031456;28;20480;-77
2021/08/24 07:21:58;;;;;;;3.40;1.77;;;;;;;;;;5031891;28;20510;-77
2021/08/24 07:24:24;;;;;;;4.75;1.70;;;;;;;;;;5031263;28;20095;-77
2021/08/24 07:26:50;;;;;;;6.07;1.60;;;;;;;;;;5032227;28;20037;-76
2021/08/24 07:29:16;;;;;;;4.75;1.90;;;;;;;;;;5032255;28;20499;-76
2021/08/24 07:31:42;;;;;;;5.47;1.70;;;;;;;;;;5031782;28;20037;-76
2021/08/24 07:34:09;;;;;;;3.35;1.58;;;;;;;;;;5031663;28;20032;-76
2021/08/24 07:36:38;;;;;;;6.70;1.40;;;;;;;;;;5030762;28;20033;-77
2021/08/24 07:39:04;;;;;;;2.33;1.58;;;;;;;;;;5031497;28;20049;-77
2021/08/24 07:41:30;;;;;;;2.65;1.50;;;;;;;;;;5031323;28;20026;-77
2021/08/24 07:43:56;;;;;;;1.65;1.23;;;;;;;;;;5031056;28;20053;-77
2021/08/24 07:46:22;;;;;;;4.05;1.88;;;;;;;;;;5031568;28;20030;-76
2021/08/24 07:48:49;;;;;;;2.95;1.50;;;;;;;;;;5031231;28;20045;-76
2021/08/24 07:51:16;;;;;;;5.38;1.70;;;;;;;;;;5031522;28;20503;-76
2021/08/24 07:53:42;;;;;;;2.20;1.52;;;;;;;;;;5032291;28;20033;-76
2021/08/24 07:56:09;;;;;;;6.50;1.58;;;;;;;;;;5005147;28;20508;-76
2021/08/24 07:58:35;;;;;;;3.33;1.40;;;;;;;;;;5011561;28;20415;-76
2021/08/24 08:01:01;;;;;;;2.03;1.58;;;;;;;;;;5011055;28;20026;-76
2021/08/24 08:03:27;;;;;;;6.18;1.65;;;;;;;;;;5012434;28;20056;-77
2021/08/24 08:05:53;;;;;;;4.97;1.90;;;;;;;;;;5012643;28;20581;-77
2021/08/24 08:08:19;;;;;;;8.00;1.98;;;;;;;;;;5011592;28;20652;-76
2021/08/24 08:10:45;;;;;;;4.15;1.50;;;;;;;;;;5011795;28;20030;-76
2021/08/24 08:13:11;;;;;;;4.25;1.50;;;;;;;;;;5012939;28;20540;-76
2021/08/24 08:15:38;;;;;;;2.10;1.50;;;;;;;;;;5012773;28;20462;-76
2021/08/24 08:18:05;;;;;;;3.10;1.38;;;;;;;;;;5011086;28;20117;-76
2021/08/24 08:20:32;;;;;;;4.70;1.60;;;;;;;;;;5012618;28;20026;-76
2021/08/24 08:22:59;;;;;;;3.05;1.60;;;;;;;;;;5010759;28;20026;-76
2021/08/24 08:25:25;;;;;;;7.38;1.95;;;;;;;;;;5010732;28;20104;-76
2021/08/24 08:27:51;;;;;;;5.70;1.95;;;;;;;;;;5012314;28;20052;-76
2021/08/24 08:30:17;;;;;;;2.85;2.10;;;;;;;;;;5012360;28;20026;-76
2021/08/24 08:32:43;;;;;;;3.47;1.75;;;;;;;;;;5011876;28;20049;-76
2021/08/24 08:35:11;;;;;;;5.20;2.08;;;;;;;;;;5011533;28;20029;-76
2021/08/24 08:37:37;;;;;;;5.57;2.00;;;;;;;;;;5016191;28;20073;-76
2021/08/24 08:40:05;;;;;;;5.88;1.88;;;;;;;;;;5016184;28;20036;-75
2021/08/24 08:42:33;;;;;;;6.07;2.08;;;;;;;;;;5016147;28;20401;-75
2021/08/24 08:45:08;;;;;;;3.83;2.00;;;;;;;;;;5015260;28;20064;-75
2021/08/24 08:47:53;;;;;;;12.23;2.63;;;;;;;;;;5015986;28;20078;-75
2021/08/24 08:50:35;;;;;;;4.85;1.92;;;;;;;;;;5015624;28;20058;-75
2021/08/24 08:53:01;;;;;;;3.88;1.92;;;;;;;;;;5016974;28;20030;-76
2021/08/24 08:55:36;;;;;;;5.15;2.08;;;;;;;;;;5015401;28;20049;-75
2021/08/24 08:58:07;;;;;;;6.82;1.60;;;;;;;;;;5015646;28;20034;-75
2021/08/24 09:00:46;;;;;;;4.30;1.23;;;;;;;;;;5014564;28;20172;-75
2021/08/24 09:03:16;;;;;;;5.88;1.77;;;;;;;;;;5016102;28;20021;-75
2021/08/24 09:05:43;;;;;;;2.67;1.50;;;;;;;;;;5015632;28;20026;-75
2021/08/24 09:08:09;;;;;;;6.38;1.50;;;;;;;;;;5016059;28;20029;-75
2021/08/24 09:10:35;;;;;;;2.30;1.23;;;;;;;;;;5015279;28;20497;-75
2021/08/24 09:13:06;;;;;;;3.33;1.30;;;;;;;;;;5015627;28;20022;-75
2021/08/24 09:15:38;;;;;;;3.60;1.50;;;;;;;;;;5015671;28;20022;-75
2021/08/24 09:18:05;;;;;;;3.78;2.15;;;;;;;;;;5015942;28;20032;-75
2021/08/24 09:20:36;;;;;;;5.35;2.22;;;;;;;;;;5015181;28;20064;-75
2021/08/24 09:23:03;;;;;;;7.68;2.28;;;;;;;;;;5015521;28;20018;-75
2021/08/24 09:25:45;;;;;;;3.65;1.63;;;;;;;;;;5015658;28;20537;-75
2021/08/24 09:28:18;;;;;;;2.45;1.38;;;;;;;;;;5014769;28;20026;-76
2021/08/24 09:30:44;;;;;;;2.40;1.27;;;;;;;;;;4995853;28;20058;-76
2021/08/24 09:33:11;;;;;;;8.60;1.90;;;;;;;;;;4995589;28;20058;-77
2021/08/24 09:35:39;;;;;;;5.47;2.05;;;;;;;;;;5009521;28;20054;-76
2021/08/24 09:38:25;;;;;;;4.00;1.85;;;;;;;;;;5015507;28;20026;-77
2021/08/24 09:40:53;;;;;;;3.22;1.48;;;;;;;;;;5014778;28;20026;-77
2021/08/24 09:43:22;;;;;;;3.35;1.40;;;;;;;;;;5014012;28;20026;-76
2021/08/24 09:45:58;;;;;;;4.97;1.35;;;;;;;;;;5014986;28;20042;-76
2021/08/24 09:48:25;;;;;;;3.33;1.50;;;;;;;;;;5013696;28;20028;-77
2021/08/24 09:50:51;;;;;;;2.92;1.58;;;;;;;;;;5014776;28;20116;-77
2021/08/24 09:53:34;;;;;;;3.13;1.40;;;;;;;;;;5015096;28;20026;-76
2021/08/24 09:56:01;;;;;;;8.98;1.98;;;;;;;;;;5014745;28;20084;-77
2021/08/24 09:58:35;;;;;;;2.40;1.70;;;;;;;;;;5013789;28;20037;-77
2021/08/24 10:01:03;;;;;;;2.55;1.30;;;;;;;;;;5013449;28;20021;-77
2021/08/24 10:03:37;;;;;;;2.20;1.30;;;;;;;;;;5013527;28;20509;-76
2021/08/24 10:06:03;;;;;;;2.80;1.38;;;;;;;;;;5014032;28;20022;-76
2021/08/24 10:08:36;;;;;;;2.38;1.40;;;;;;;;;;5014195;28;20030;-76
2021/08/24 10:11:02;;;;;;;;;;;;;;;;;;5014073;28;20026;-76
2021/08/24 10:13:31;;;;;;;3.58;1.20;;;;;;;;;;5014835;28;20004;-76
2021/08/24 10:16:12;;;;;;;2.47;1.30;;;;;;;;;;5014627;28;20408;-75
2021/08/24 10:18:39;;;;;;;2.85;1.30;;;;;;;;;;5014374;28;20034;-76
2021/08/24 10:21:07;;;;;;;2.80;1.23;;;;;;;;;;5011402;28;20030;-76
2021/08/24 10:23:35;;;;;;;5.10;1.30;;;;;;;;;;5045515;28;20029;-76
2021/08/24 10:26:02;;;;;;;3.72;1.30;;;;;;;;;;5013002;28;20030;-76
2021/08/24 10:28:30;;;;;;;2.90;1.20;;;;;;;;;;5013038;28;20030;-76
2021/08/24 10:30:56;;;;;;;2.90;1.52;;;;;;;;;;5013703;28;20417;-76
2021/08/24 10:33:30;;;;;;;5.75;1.42;;;;;;;;;;5011967;28;20037;-76
2021/08/24 10:36:13;;;;;;;2.60;1.63;;;;;;;;;;5013638;28;20488;-77
2021/08/24 10:38:42;;;;;;;2.93;1.20;;;;;;;;;;5013969;28;20258;-76
2021/08/24 10:41:18;;;;;;;1.45;1.30;;;;;;;;;;5013587;28;20026;-76
2021/08/24 10:43:53;;;;;;;2.10;1.40;;;;;;;;;;5045171;28;20017;-76
2021/08/24 10:46:19;;;;;;;4.28;1.52;;;;;;;;;;5013792;28;20058;-76
2021/08/24 10:48:46;;;;;;;1.52;1.42;;;;;;;;;;5013248;28;20037;-76
2021/08/24 10:51:33;;;;;;;7.80;5.18;;;;;;;;;;5012896;28;20038;-77
2021/08/24 10:54:05;;;;;;;4.90;4.10;;;;;;;;;;5045808;28;20057;-77
2021/08/24 10:56:34;;;;;;;10.50;6.95;;;;;;;;;;5045589;28;20031;-77
2021/08/24 10:59:19;;;;;;;8.32;6.50;;;;;;;;;;5012797;28;20088;-77
2021/08/24 11:01:52;;;;;;;10.68;6.15;;;;;;;;;;5012385;28;20485;-77
2021/08/24 11:04:29;;;;;;;7.57;6.25;;;;;;;;;;5011552;28;20030;-76
2021/08/24 11:06:55;;;;;;;6.05;4.97;;;;;;;;;;5012516;28;20075;-76
2021/08/24 11:09:28;;;;;;;4.70;3.97;;;;;;;;;;5012749;28;20124;-76
2021/08/24 11:12:03;;;;;;;7.47;3.63;;;;;;;;;;5012806;28;20105;-76
2021/08/24 11:14:48;;;;;;;6.15;4.18;;;;;;;;;;5012918;28;20079;-76
2021/08/24 11:17:20;;;;;;;6.22;4.35;;;;;;;;;;5013298;28;20402;-76
2021/08/24 11:20:05;;;;;;;4.18;3.20;;;;;;;;;;5013217;28;20038;-76
2021/08/24 11:22:37;;;;;;;5.05;3.45;;;;;;;;;;5012346;28;20032;-76
2021/08/24 11:25:15;;;;;;;4.65;2.83;;;;;;;;;;5045265;28;20018;-76
2021/08/24 11:28:01;;;;;;;4.63;3.30;;;;;;;;;;5044909;28;20404;-76
2021/08/24 11:30:27;;;;;;;5.28;3.95;;;;;;;;;;5013116;28;20030;-75
2021/08/24 11:33:06;;;;;;;6.18;3.33;;;;;;;;;;5011473;28;20096;-75
2021/08/24 11:35:40;;;;;;;4.20;3.38;;;;;;;;;;5011731;28;20018;-76
2021/08/24 11:38:10;;;;;;;4.47;3.25;;;;;;;;;;5012459;28;20033;-75
2021/08/24 11:40:36;;;;;;;5.43;3.10;;;;;;;;;;5011598;28;20034;-75
2021/08/24 11:43:03;;;;;;;5.63;2.80;;;;;;;;;;5011785;28;20026;-76
2021/08/24 11:45:47;;;;;;;6.55;2.65;;;;;;;;;;5013091;28;20018;-76
2021/08/24 11:48:24;;;;;;;7.22;2.90;;;;;;;;;;5012512;28;20030;-76
2021/08/24 11:50:55;;;;;;;25.92;5.50;;;;;;;;;;5010781;28;20050;-76
2021/08/24 11:53:25;;;;;;;13.25;4.00;;;;;;;;;;5011650;28;20029;-76
2021/08/24 11:55:56;;;;;;;13.88;3.25;;;;;;;;;;5012703;28;20113;-76
2021/08/24 11:58:22;;;;;;;11.20;3.15;;;;;;;;;;5012433;28;20579;-76
2021/08/24 12:00:50;;;;;;;14.32;2.90;;;;;;;;;;5011398;28;20057;-76
2021/08/24 12:03:20;;;;;;;9.95;3.13;;;;;;;;;;5012908;28;20032;-75
2021/08/24 12:05:49;;;;;;;11.57;2.67;;;;;;;;;;5012075;28;20477;-75
2021/08/24 12:08:17;;;;;;;10.88;2.40;;;;;;;;;;5011209;28;20026;-75
2021/08/24 12:10:49;;;;;;;7.50;2.40;;;;;;;;;;5010476;28;20080;-75
2021/08/24 12:13:24;;;;;;;8.35;2.58;;;;;;;;;;5013093;28;20091;-76
2021/08/24 12:15:52;;;;;;;7.53;2.38;;;;;;;;;;5011270;28;20117;-75
2021/08/24 12:18:18;;;;;;;6.43;2.45;;;;;;;;;;5012451;28;20022;-75
2021/08/24 12:20:55;;;;;;;8.02;2.28;;;;;;;;;;5010834;28;20022;-76
2021/08/24 12:23:50;;;;;;;6.50;2.05;;;;;;;;;;5012133;28;20026;-77
2021/08/24 12:26:27;;;;;;;8.52;1.83;;;;;;;;;;5002907;28;20030;-77
2021/08/24 12:28:55;;;;;;;7.63;2.28;;;;;;;;;;5012270;28;20025;-77
2021/08/24 12:31:30;;;;;;;7.53;1.75;;;;;;;;;;5011013;28;20398;-77
2021/08/24 12:33:56;;;;;;;7.03;1.80;;;;;;;;;;5011041;28;20076;-75
2021/08/24 12:36:22;;;;;;;3.03;1.70;;;;;;;;;;5010942;28;20093;-76
2021/08/24 12:38:55;;;;;;;7.15;1.75;;;;;;;;;;5010975;28;20033;-75
2021/08/24 12:41:31;;;;;;;7.43;1.70;;;;;;;;;;5009535;28;20018;-77
2021/08/24 12:44:15;;;;;;;2.92;1.65;;;;;;;;;;5012213;28;20030;-77
2021/08/24 12:46:45;;;;;;;2.88;1.80;;;;;;;;;;5011469;28;20024;-76
2021/08/24 12:49:14;;;;;;;6.13;1.90;;;;;;;;;;5010850;28;20444;-77
2021/08/24 12:51:48;;;;;;;5.90;2.20;;;;;;;;;;5011683;28;20032;-76
2021/08/24 12:54:18;;;;;;;4.03;1.50;;;;;;;;;;5011954;28;20033;-77
2021/08/24 12:56:46;;;;;;;4.40;1.80;;;;;;;;;;5012295;28;20064;-77
2021/08/24 12:59:33;;;;;;;2.08;1.40;;;;;;;;;;5011726;28;20508;-77
2021/08/24 13:02:14;;;;;;;2.15;1.40;;;;;;;;;;5011721;28;20029;-76
2021/08/24 13:04:46;;;;;;;2.47;1.40;;;;;;;;;;5010482;28;20025;-75
2021/08/24 13:07:32;;;;;;;3.45;1.35;;;;;;;;;;5011529;28;20026;-75
2021/08/24 13:10:08;;;;;;;3.20;1.60;;;;;;;;;;5010812;28;20084;-75
2021/08/24 13:12:36;;;;;;;3.13;1.65;;;;;;;;;;5009515;28;20026;-76
2021/08/24 13:15:05;;;;;;;4.88;1.75;;;;;;;;;;5011121;28;20027;-76
2021/08/24 13:17:43;;;;;;;2.38;1.65;;;;;;;;;;5011449;28;20026;-76
2021/08/24 13:20:14;;;;;;;1.70;1.33;;;;;;;;;;5011547;28;20041;-76
2021/08/24 13:22:46;;;;;;;2.20;1.58;;;;;;;;;;5011949;28;20085;-76
2021/08/24 13:25:14;;;;;;;2.38;1.50;;;;;;;;;;5015095;28;20417;-76
2021/08/24 13:27:48;;;;;;;3.42;1.40;;;;;;;;;;5015536;28;20026;-76
2021/08/24 13:30:17;;;;;;;2.63;1.60;;;;;;;;;;5015175;28;20037;-75
2021/08/24 13:32:49;;;;;;;2.15;1.52;;;;;;;;;;5013425;28;20030;-76
2021/08/24 13:35:21;;;;;;;3.83;1.83;;;;;;;;;;5046415;28;20060;-76
2021/08/24 13:37:48;;;;;;;1.83;1.65;;;;;;;;;;5015381;28;20030;-75
2021/08/24 13:40:14;;;;;;;2.45;1.30;;;;;;;;;;5015295;28;20477;-75
2021/08/24 13:42:44;;;;;;;1.63;1.50;;;;;;;;;;5013566;28;20026;-75
2021/08/24 13:45:16;;;;;;;2.90;1.60;;;;;;;;;;5015147;28;20483;-76
2021/08/24 13:47:46;;;;;;;1.80;1.10;;;;;;;;;;5014298;28;20018;-75
2021/08/24 13:50:21;;;;;;;3.67;1.50;;;;;;;;;;5013185;28;20137;-75
2021/08/24 13:52:58;;;;;;;1.40;1.30;;;;;;;;;;5014248;28;20392;-75
2021/08/24 13:55:28;;;;;;;2.70;1.63;;;;;;;;;;5015002;28;20044;-75
2021/08/24 13:57:54;;;;;;;2.08;1.48;;;;;;;;;;5013587;28;20382;-76
2021/08/24 14:00:22;;;;;;;2.83;1.60;;;;;;;;;;5014116;28;20102;-76
2021/08/24 14:02:49;;;;;;;2.67;1.50;;;;;;;;;;5013986;28;20022;-76
2021/08/24 14:05:21;;;;;;;1.40;1.10;;;;;;;;;;5014488;28;20029;-76
2021/08/24 14:07:57;;;;;;;1.60;1.20;;;;;;;;;;5014480;28;20029;-75
2021/08/24 14:10:28;;;;;;;2.65;1.15;;;;;;;;;;5013013;28;20022;-75
2021/08/24 14:12:59;;;;;;;3.90;1.10;;;;;;;;;;5013788;28;20084;-76
2021/08/24 14:15:27;;;;;;;1.40;1.30;;;;;;;;;;5014795;28;20030;-76
2021/08/24 14:18:14;;;;;;;2.10;1.20;;;;;;;;;;5013676;28;20084;-75
2021/08/24 14:20:43;;;;;;;2.42;1.10;;;;;;;;;;5013841;28;20034;-76
2021/08/24 14:23:17;;;;;;;2.63;1.40;;;;;;;;;;5013810;28;20092;-76
2021/08/24 14:25:48;;;;;;;2.72;1.50;;;;;;;;;;5014747;28;20028;-75
2021/08/24 14:28:43;;;;;;;1.90;1.35;;;;;;;;;;5014431;28;20025;-75
2021/08/24 14:31:13;;;;;;;1.70;1.48;;;;;;;;;;5003903;28;20034;-75
2021/08/24 14:33:41;;;;;;;1.60;1.40;;;;;;;;;;5013246;28;20042;-75
2021/08/24 14:36:33;;;;;;;1.80;1.13;;;;;;;;;;5013830;28;20068;-75
2021/08/24 14:39:18;;;;;;;4.35;1.23;;;;;;;;;;5014093;28;20054;-75
2021/08/24 14:41:47;;;;;;;6.63;1.33;;;;;;;;;;5013414;28;20034;-75
2021/08/24 14:44:14;;;;;;;3.60;1.50;;;;;;;;;;5013924;28;20561;-76
2021/08/24 14:47:00;;;;;;;2.22;1.33;;;;;;;;;;5013382;28;20029;-76
2021/08/24 14:49:29;;;;;;;3.28;1.58;;;;;;;;;;4993830;28;20061;-76
2021/08/24 14:51:56;;;;;;;2.35;1.35;;;;;;;;;;5027406;28;20160;-75
2021/08/24 14:54:28;;;;;;;2.20;1.30;;;;;;;;;;5013225;28;20038;-75
2021/08/24 14:56:54;;;;;;;4.13;1.27;;;;;;;;;;5013652;28;20416;-74
2021/08/24 14:59:20;;;;;;;7.70;1.80;;;;;;;;;;5012870;28;20037;-75